KLM2643 LEBB-LEAS
Flight info
| Callsign | KLM2643 |
|---|---|
| Flight time | 0h 34m |
| Altitude | 29000 |
| Route | PPN M601 CEGAM/N0465F310 M601 BLV M190 LASKU/N0419F230 M190 AMAKA |
| Aircraft | B738/M-SDE2E3FGHIRWXY/LB1 |
Departure
| Time | 2026-04-27 11:12 |
|---|---|
| Airport | Bilbao Airport (LEBB) |
Arrival
| Time | 2026-04-27 11:46 |
|---|---|
| Airport | Asturias Airport (LEAS) |
| Time | Latitude | Longitude | Altitude | Speed | Heading |
|---|---|---|---|---|---|
| 2026-04-27 10:44 | 43.30427 | -2.90632 | 123 ft | 0 kts | 26° |
| 2026-04-27 10:59 | 43.30423 | -2.90635 | 121 ft | 4 kts | 27° |
| 2026-04-27 10:59 | 43.30400 | -2.90654 | 124 ft | 4 kts | 39° |
| 2026-04-27 10:59 | 43.30381 | -2.90680 | 121 ft | 4 kts | 61° |
| 2026-04-27 11:00 | 43.30377 | -2.90716 | 122 ft | 0 kts | 116° |
| 2026-04-27 11:00 | 43.30427 | -2.90632 | 126 ft | 0 kts | 26° |
| 2026-04-27 11:02 | 43.30419 | -2.90638 | 121 ft | 4 kts | 28° |
| 2026-04-27 11:03 | 43.30397 | -2.90657 | 125 ft | 4 kts | 40° |
| 2026-04-27 11:03 | 43.30378 | -2.90683 | 124 ft | 4 kts | 65° |
| 2026-04-27 11:03 | 43.30375 | -2.90711 | 123 ft | 2 kts | 116° |
| 2026-04-27 11:03 | 43.30375 | -2.90712 | 123 ft | 0 kts | 116° |
| 2026-04-27 11:06 | 43.30374 | -2.90708 | 124 ft | 2 kts | 116° |
| 2026-04-27 11:06 | 43.30352 | -2.90648 | 126 ft | 11 kts | 116° |
| 2026-04-27 11:06 | 43.30301 | -2.90577 | 126 ft | 9 kts | 143° |
| 2026-04-27 11:07 | 43.30251 | -2.90534 | 123 ft | 7 kts | 160° |
| 2026-04-27 11:07 | 43.30199 | -2.90545 | 125 ft | 8 kts | 202° |
| 2026-04-27 11:07 | 43.30145 | -2.90574 | 123 ft | 9 kts | 182° |
| 2026-04-27 11:07 | 43.30100 | -2.90527 | 125 ft | 6 kts | 117° |
| 2026-04-27 11:08 | 43.30080 | -2.90471 | 125 ft | 7 kts | 117° |
| 2026-04-27 11:08 | 43.30051 | -2.90391 | 124 ft | 12 kts | 116° |
| 2026-04-27 11:08 | 43.30012 | -2.90284 | 125 ft | 13 kts | 117° |
| 2026-04-27 11:08 | 43.29972 | -2.90175 | 126 ft | 13 kts | 116° |
| 2026-04-27 11:09 | 43.29932 | -2.90067 | 127 ft | 13 kts | 117° |
| 2026-04-27 11:09 | 43.29893 | -2.89960 | 126 ft | 12 kts | 116° |
| 2026-04-27 11:09 | 43.29854 | -2.89854 | 123 ft | 13 kts | 118° |
| 2026-04-27 11:09 | 43.29816 | -2.89746 | 124 ft | 13 kts | 115° |
| 2026-04-27 11:10 | 43.29781 | -2.89656 | 123 ft | 9 kts | 118° |
| 2026-04-27 11:10 | 43.29747 | -2.89597 | 126 ft | 7 kts | 152° |
| 2026-04-27 11:10 | 43.29698 | -2.89604 | 125 ft | 8 kts | 217° |
| 2026-04-27 11:10 | 43.29661 | -2.89664 | 122 ft | 9 kts | 231° |
| 2026-04-27 11:11 | 43.29633 | -2.89727 | 124 ft | 7 kts | 262° |
| 2026-04-27 11:11 | 43.29649 | -2.89807 | 124 ft | 17 kts | 296° |
| 2026-04-27 11:11 | 43.29836 | -2.90307 | 124 ft | 104 kts | 297° |
| 2026-04-27 11:11 | 43.30276 | -2.91506 | 310 ft | 158 kts | 296° |
| 2026-04-27 11:12 | 43.30781 | -2.92913 | 1082 ft | 173 kts | 298° |
| 2026-04-27 11:12 | 43.31334 | -2.94412 | 1934 ft | 182 kts | 297° |
| 2026-04-27 11:12 | 43.31927 | -2.96001 | 2802 ft | 188 kts | 297° |
| 2026-04-27 11:12 | 43.32476 | -2.97546 | 4028 ft | 169 kts | 294° |
| 2026-04-27 11:13 | 43.32976 | -2.99030 | 4921 ft | 176 kts | 294° |
| 2026-04-27 11:13 | 43.33667 | -3.00489 | 5588 ft | 197 kts | 317° |
| 2026-04-27 11:13 | 43.34992 | -3.01379 | 5907 ft | 225 kts | 335° |
| 2026-04-27 11:13 | 43.36355 | -3.02518 | 6449 ft | 234 kts | 322° |
| 2026-04-27 11:14 | 43.37603 | -3.03977 | 7148 ft | 237 kts | 316° |
| 2026-04-27 11:14 | 43.38786 | -3.05581 | 7915 ft | 241 kts | 313° |
| 2026-04-27 11:14 | 43.39901 | -3.07366 | 8550 ft | 259 kts | 298° |
| 2026-04-27 11:14 | 43.40286 | -3.09866 | 9001 ft | 280 kts | 261° |
| 2026-04-27 11:15 | 43.39518 | -3.12311 | 9952 ft | 283 kts | 228° |
| 2026-04-27 11:15 | 43.38137 | -3.14269 | 10783 ft | 296 kts | 232° |
| 2026-04-27 11:15 | 43.37341 | -3.17020 | 11037 ft | 330 kts | 262° |
| 2026-04-27 11:15 | 43.37334 | -3.20296 | 11456 ft | 352 kts | 269° |
| 2026-04-27 11:16 | 43.37202 | -3.23686 | 12274 ft | 358 kts | 263° |
| 2026-04-27 11:16 | 43.36879 | -3.27050 | 13264 ft | 361 kts | 261° |
| 2026-04-27 11:16 | 43.36549 | -3.30484 | 14246 ft | 365 kts | 265° |
| 2026-04-27 11:16 | 43.36610 | -3.33996 | 15153 ft | 371 kts | 276° |
| 2026-04-27 11:17 | 43.37077 | -3.37498 | 16104 ft | 374 kts | 281° |
| 2026-04-27 11:17 | 43.37623 | -3.41014 | 17040 ft | 379 kts | 281° |
| 2026-04-27 11:17 | 43.38189 | -3.44584 | 17950 ft | 384 kts | 281° |
| 2026-04-27 11:17 | 43.38755 | -3.48195 | 18784 ft | 388 kts | 281° |
| 2026-04-27 11:18 | 43.39319 | -3.51847 | 19569 ft | 392 kts | 280° |
| 2026-04-27 11:18 | 43.39878 | -3.55530 | 20359 ft | 396 kts | 280° |
| 2026-04-27 11:18 | 43.40436 | -3.59249 | 21111 ft | 399 kts | 280° |
| 2026-04-27 11:18 | 43.40996 | -3.63010 | 21863 ft | 403 kts | 280° |
| 2026-04-27 11:19 | 43.41559 | -3.66805 | 22574 ft | 407 kts | 279° |
| 2026-04-27 11:19 | 43.42127 | -3.70650 | 23266 ft | 412 kts | 279° |
| 2026-04-27 11:19 | 43.42699 | -3.74525 | 23919 ft | 415 kts | 279° |
| 2026-04-27 11:19 | 43.43276 | -3.78440 | 24494 ft | 419 kts | 279° |
| 2026-04-27 11:20 | 43.43856 | -3.82382 | 25076 ft | 421 kts | 279° |
| 2026-04-27 11:20 | 43.44436 | -3.86338 | 25666 ft | 423 kts | 279° |
| 2026-04-27 11:20 | 43.45002 | -3.90278 | 26201 ft | 426 kts | 278° |
| 2026-04-27 11:20 | 43.45376 | -3.94331 | 26696 ft | 428 kts | 273° |
| 2026-04-27 11:21 | 43.45619 | -3.98429 | 27190 ft | 431 kts | 272° |
| 2026-04-27 11:21 | 43.45830 | -4.02556 | 27670 ft | 434 kts | 272° |
| 2026-04-27 11:21 | 43.46045 | -4.06720 | 28154 ft | 437 kts | 272° |
| 2026-04-27 11:21 | 43.46275 | -4.10910 | 28609 ft | 440 kts | 272° |
| 2026-04-27 11:22 | 43.46519 | -4.15117 | 29118 ft | 442 kts | 272° |
| 2026-04-27 11:22 | 43.46771 | -4.19355 | 29167 ft | 445 kts | 272° |
| 2026-04-27 11:22 | 43.47278 | -4.27802 | 29179 ft | 439 kts | 272° |
| 2026-04-27 11:23 | 43.47755 | -4.36184 | 29193 ft | 440 kts | 271° |
| 2026-04-27 11:23 | 43.48137 | -4.44603 | 29188 ft | 441 kts | 271° |
| 2026-04-27 11:24 | 43.48528 | -4.53028 | 29186 ft | 442 kts | 272° |
| 2026-04-27 11:24 | 43.48996 | -4.61461 | 29195 ft | 441 kts | 272° |
| 2026-04-27 11:25 | 43.49468 | -4.69870 | 29181 ft | 439 kts | 272° |
| 2026-04-27 11:25 | 43.49920 | -4.78226 | 29183 ft | 436 kts | 272° |
| 2026-04-27 11:26 | 43.50358 | -4.86486 | 29185 ft | 435 kts | 272° |
| 2026-04-27 11:26 | 43.50818 | -4.94777 | 29188 ft | 434 kts | 272° |
| 2026-04-27 11:27 | 43.51296 | -5.03071 | 29050 ft | 434 kts | 272° |
| 2026-04-27 11:27 | 43.51532 | -5.07246 | 28034 ft | 437 kts | 272° |
| 2026-04-27 11:27 | 43.51766 | -5.11401 | 26988 ft | 434 kts | 272° |
| 2026-04-27 11:28 | 43.51996 | -5.15541 | 25833 ft | 435 kts | 272° |
| 2026-04-27 11:28 | 43.52226 | -5.19705 | 24736 ft | 434 kts | 272° |
| 2026-04-27 11:28 | 43.52453 | -5.23840 | 23838 ft | 430 kts | 272° |
| 2026-04-27 11:28 | 43.52676 | -5.27925 | 22844 ft | 425 kts | 272° |
| 2026-04-27 11:29 | 43.52822 | -5.30602 | 22183 ft | 422 kts | 273° |
| 2026-04-27 11:29 | 43.53336 | -5.34547 | 21463 ft | 416 kts | 284° |
| 2026-04-27 11:29 | 43.54246 | -5.38280 | 20740 ft | 408 kts | 287° |
| 2026-04-27 11:29 | 43.55186 | -5.41932 | 19965 ft | 402 kts | 288° |
| 2026-04-27 11:30 | 43.56104 | -5.45516 | 19568 ft | 383 kts | 287° |
| 2026-04-27 11:30 | 43.56947 | -5.48869 | 19413 ft | 357 kts | 287° |
| 2026-04-27 11:30 | 43.57730 | -5.52045 | 18921 ft | 345 kts | 287° |
| 2026-04-27 11:30 | 43.58490 | -5.55181 | 18083 ft | 345 kts | 287° |
| 2026-04-27 11:31 | 43.59246 | -5.58319 | 17231 ft | 344 kts | 287° |
| 2026-04-27 11:31 | 43.59994 | -5.61437 | 16478 ft | 340 kts | 287° |
| 2026-04-27 11:31 | 43.60731 | -5.64511 | 15763 ft | 336 kts | 287° |
| 2026-04-27 11:31 | 43.61461 | -5.67553 | 15050 ft | 332 kts | 287° |
| 2026-04-27 11:32 | 43.62182 | -5.70568 | 14348 ft | 329 kts | 287° |
| 2026-04-27 11:32 | 43.62897 | -5.73555 | 13650 ft | 326 kts | 287° |
| 2026-04-27 11:32 | 43.63602 | -5.76509 | 12915 ft | 322 kts | 287° |
| 2026-04-27 11:32 | 43.64300 | -5.79432 | 12185 ft | 319 kts | 287° |
| 2026-04-27 11:33 | 43.64992 | -5.82334 | 11476 ft | 317 kts | 287° |
| 2026-04-27 11:33 | 43.65678 | -5.85213 | 10786 ft | 314 kts | 287° |
| 2026-04-27 11:33 | 43.66356 | -5.88064 | 10139 ft | 311 kts | 287° |
| 2026-04-27 11:33 | 43.67027 | -5.90886 | 9417 ft | 308 kts | 287° |
| 2026-04-27 11:34 | 43.67685 | -5.93659 | 8714 ft | 306 kts | 287° |
| 2026-04-27 11:34 | 43.68347 | -5.96454 | 7960 ft | 307 kts | 287° |
| 2026-04-27 11:34 | 43.68995 | -5.99189 | 7754 ft | 290 kts | 287° |
| 2026-04-27 11:34 | 43.69602 | -6.01753 | 7615 ft | 272 kts | 287° |
| 2026-04-27 11:35 | 43.70184 | -6.04217 | 7208 ft | 269 kts | 287° |
| 2026-04-27 11:35 | 43.70763 | -6.06676 | 6717 ft | 270 kts | 288° |
| 2026-04-27 11:35 | 43.71342 | -6.09133 | 6253 ft | 268 kts | 287° |
| 2026-04-27 11:35 | 43.71919 | -6.11586 | 5710 ft | 269 kts | 288° |
| 2026-04-27 11:36 | 43.72498 | -6.14049 | 5245 ft | 269 kts | 288° |
| 2026-04-27 11:36 | 43.73074 | -6.16501 | 4771 ft | 268 kts | 288° |
| 2026-04-27 11:36 | 43.73643 | -6.18924 | 4535 ft | 258 kts | 288° |
| 2026-04-27 11:36 | 43.74178 | -6.21206 | 4484 ft | 241 kts | 288° |
| 2026-04-27 11:37 | 43.74678 | -6.23342 | 4470 ft | 226 kts | 288° |
| 2026-04-27 11:37 | 43.75158 | -6.25394 | 4474 ft | 222 kts | 288° |
| 2026-04-27 11:37 | 43.75600 | -6.27434 | 4476 ft | 221 kts | 278° |
| 2026-04-27 11:37 | 43.75351 | -6.29434 | 4479 ft | 208 kts | 234° |
| 2026-04-27 11:38 | 43.74267 | -6.30556 | 4507 ft | 192 kts | 193° |
| 2026-04-27 11:38 | 43.72992 | -6.31065 | 4492 ft | 190 kts | 194° |
| 2026-04-27 11:38 | 43.71720 | -6.31604 | 4497 ft | 192 kts | 194° |
| 2026-04-27 11:38 | 43.70436 | -6.32149 | 4490 ft | 194 kts | 194° |
| 2026-04-27 11:39 | 43.69144 | -6.32692 | 4483 ft | 194 kts | 192° |
| 2026-04-27 11:39 | 43.67821 | -6.32988 | 4475 ft | 192 kts | 179° |
| 2026-04-27 11:39 | 43.66504 | -6.32829 | 4479 ft | 189 kts | 164° |
| 2026-04-27 11:39 | 43.65295 | -6.32156 | 4480 ft | 187 kts | 148° |
| 2026-04-27 11:40 | 43.64294 | -6.31093 | 4384 ft | 175 kts | 135° |
| 2026-04-27 11:40 | 43.63536 | -6.29890 | 4208 ft | 162 kts | 126° |
| 2026-04-27 11:40 | 43.62891 | -6.28680 | 4011 ft | 151 kts | 124° |
| 2026-04-27 11:40 | 43.62384 | -6.27484 | 3861 ft | 138 kts | 117° |
| 2026-04-27 11:41 | 43.61974 | -6.26285 | 3653 ft | 137 kts | 115° |
| 2026-04-27 11:41 | 43.61594 | -6.25089 | 3466 ft | 134 kts | 112° |
| 2026-04-27 11:41 | 43.61260 | -6.23889 | 3287 ft | 135 kts | 110° |
| 2026-04-27 11:41 | 43.60944 | -6.22669 | 3109 ft | 135 kts | 109° |
| 2026-04-27 11:42 | 43.60637 | -6.21437 | 2926 ft | 135 kts | 108° |
| 2026-04-27 11:42 | 43.60339 | -6.20210 | 2736 ft | 135 kts | 108° |
| 2026-04-27 11:42 | 43.60044 | -6.18988 | 2568 ft | 134 kts | 107° |
| 2026-04-27 11:42 | 43.59755 | -6.17777 | 2383 ft | 132 kts | 107° |
| 2026-04-27 11:43 | 43.59464 | -6.16559 | 2203 ft | 135 kts | 107° |
| 2026-04-27 11:43 | 43.59174 | -6.15341 | 2040 ft | 134 kts | 107° |
| 2026-04-27 11:43 | 43.58884 | -6.14118 | 1856 ft | 133 kts | 107° |
| 2026-04-27 11:43 | 43.58595 | -6.12903 | 1698 ft | 134 kts | 106° |
| 2026-04-27 11:44 | 43.58306 | -6.11686 | 1499 ft | 133 kts | 107° |
| 2026-04-27 11:44 | 43.58017 | -6.10467 | 1321 ft | 135 kts | 107° |
| 2026-04-27 11:44 | 43.57727 | -6.09245 | 1134 ft | 134 kts | 106° |
| 2026-04-27 11:44 | 43.57438 | -6.08025 | 967 ft | 133 kts | 107° |
| 2026-04-27 11:45 | 43.57150 | -6.06811 | 791 ft | 134 kts | 106° |
| 2026-04-27 11:45 | 43.56959 | -6.06001 | 668 ft | 135 kts | 107° |
| 2026-04-27 11:45 | 43.56562 | -6.04337 | 435 ft | 130 kts | 107° |
| 2026-04-27 11:45 | 43.56316 | -6.03292 | 420 ft | 91 kts | 107° |
| 2026-04-27 11:46 | 43.56186 | -6.02737 | 419 ft | 50 kts | 108° |
| 2026-04-27 11:46 | 43.56104 | -6.02376 | 415 ft | 24 kts | 106° |
| 2026-04-27 11:46 | 43.56065 | -6.02232 | 414 ft | 9 kts | 148° |
| 2026-04-27 11:46 | 43.56004 | -6.02227 | 414 ft | 9 kts | 212° |
| 2026-04-27 11:47 | 43.55968 | -6.02302 | 420 ft | 10 kts | 244° |
| 2026-04-27 11:47 | 43.55945 | -6.02405 | 420 ft | 14 kts | 271° |
| 2026-04-27 11:47 | 43.55982 | -6.02580 | 413 ft | 23 kts | 288° |
| 2026-04-27 11:47 | 43.56032 | -6.02790 | 420 ft | 23 kts | 288° |
| 2026-04-27 11:48 | 43.56074 | -6.02968 | 417 ft | 18 kts | 288° |
| 2026-04-27 11:48 | 43.56106 | -6.03102 | 419 ft | 13 kts | 288° |
| 2026-04-27 11:48 | 43.56114 | -6.03195 | 420 ft | 10 kts | 246° |
| 2026-04-27 11:48 | 43.56077 | -6.03228 | 416 ft | 7 kts | 180° |
| 2026-04-27 11:49 | 43.56049 | -6.03189 | 420 ft | 6 kts | 111° |
| 2026-04-27 11:49 | 43.56039 | -6.03157 | 418 ft | 4 kts | 113° |
| 2026-04-27 11:49 | 43.56022 | -6.03143 | 414 ft | 3 kts | 188° |
| 2026-04-27 11:49 | 43.56002 | -6.03153 | 416 ft | 3 kts | 201° |
| 2026-04-27 11:50 | 43.55986 | -6.03158 | 415 ft | 0 kts | 191° |